sensor_id;sensor_type;location;lat;lon;timestamp;pressure;altitude;pressure_sealevel;temperature;humidity
19590;BME280;12231;42.782;23.388;2022-09-21T00:00:47;95759.47;;;6.68;100.00
19590;BME280;12231;42.782;23.388;2022-09-21T00:03:13;95758.59;;;6.29;100.00
19590;BME280;12231;42.782;23.388;2022-09-21T00:05:39;95755.09;;;6.52;100.00
19590;BME280;12231;42.782;23.388;2022-09-21T00:08:05;95754.38;;;6.48;100.00
19590;BME280;12231;42.782;23.388;2022-09-21T00:10:31;95745.72;;;6.51;100.00
19590;BME280;12231;42.782;23.388;2022-09-21T00:12:57;95748.75;;;6.40;100.00
19590;BME280;12231;42.782;23.388;2022-09-21T00:15:24;95757.16;;;6.22;100.00
19590;BME280;12231;42.782;23.388;2022-09-21T00:17:53;95755.78;;;6.35;100.00
19590;BME280;12231;42.782;23.388;2022-09-21T00:20:19;95758.06;;;6.41;100.00
19590;BME280;12231;42.782;23.388;2022-09-21T00:22:46;95758.38;;;6.54;100.00
19590;BME280;12231;42.782;23.388;2022-09-21T00:25:12;95759.38;;;6.51;100.00
19590;BME280;12231;42.782;23.388;2022-09-21T00:27:38;95754.13;;;6.54;100.00
19590;BME280;12231;42.782;23.388;2022-09-21T00:30:04;95755.59;;;6.60;100.00
19590;BME280;12231;42.782;23.388;2022-09-21T00:32:32;95757.44;;;6.56;100.00
19590;BME280;12231;42.782;23.388;2022-09-21T00:34:59;95759.22;;;6.54;100.00
19590;BME280;12231;42.782;23.388;2022-09-21T00:37:26;95755.16;;;6.50;100.00
19590;BME280;12231;42.782;23.388;2022-09-21T00:39:52;95753.66;;;6.45;100.00
19590;BME280;12231;42.782;23.388;2022-09-21T00:42:29;95751.16;;;6.43;100.00
19590;BME280;12231;42.782;23.388;2022-09-21T00:44:55;95752.25;;;6.38;100.00
19590;BME280;12231;42.782;23.388;2022-09-21T00:50:17;95752.38;;;6.35;100.00
19590;BME280;12231;42.782;23.388;2022-09-21T00:52:48;95754.16;;;6.33;100.00
19590;BME280;12231;42.782;23.388;2022-09-21T00:55:40;95757.94;;;6.24;100.00
19590;BME280;12231;42.782;23.388;2022-09-21T00:58:15;95752.69;;;6.27;100.00
19590;BME280;12231;42.782;23.388;2022-09-21T01:00:43;95741.28;;;6.14;100.00
19590;BME280;12231;42.782;23.388;2022-09-21T01:03:11;95741.28;;;6.14;100.00
19590;BME280;12231;42.782;23.388;2022-09-21T01:05:36;95742.09;;;6.15;100.00
19590;BME280;12231;42.782;23.388;2022-09-21T01:08:03;95741.56;;;6.07;100.00
19590;BME280;12231;42.782;23.388;2022-09-21T01:10:41;95743.59;;;5.77;100.00
19590;BME280;12231;42.782;23.388;2022-09-21T01:13:26;95746.16;;;5.77;100.00
19590;BME280;12231;42.782;23.388;2022-09-21T01:16:03;95746.22;;;5.76;100.00
19590;BME280;12231;42.782;23.388;2022-09-21T01:19:08;95744.28;;;5.81;100.00
19590;BME280;12231;42.782;23.388;2022-09-21T01:21:54;95742.69;;;5.78;100.00
19590;BME280;12231;42.782;23.388;2022-09-21T01:29:49;95728.31;;;5.76;100.00
19590;BME280;12231;42.782;23.388;2022-09-21T01:32:27;95730.91;;;5.74;100.00
19590;BME280;12231;42.782;23.388;2022-09-21T01:37:39;95720.44;;;5.58;100.00
19590;BME280;12231;42.782;23.388;2022-09-21T01:40:10;95721.34;;;5.57;100.00
19590;BME280;12231;42.782;23.388;2022-09-21T01:42:39;95723.03;;;5.35;100.00
19590;BME280;12231;42.782;23.388;2022-09-21T01:45:07;95726.91;;;5.45;100.00
19590;BME280;12231;42.782;23.388;2022-09-21T01:47:35;95728.56;;;5.46;100.00
19590;BME280;12231;42.782;23.388;2022-09-21T01:50:05;95729.59;;;5.42;100.00
19590;BME280;12231;42.782;23.388;2022-09-21T01:55:09;95735.25;;;5.50;100.00
19590;BME280;12231;42.782;23.388;2022-09-21T01:57:59;95747.06;;;5.53;100.00
19590;BME280;12231;42.782;23.388;2022-09-21T02:00:27;95740.19;;;5.55;100.00
19590;BME280;12231;42.782;23.388;2022-09-21T02:03:13;95750.53;;;5.52;100.00
19590;BME280;12231;42.782;23.388;2022-09-21T02:05:42;95744.50;;;5.53;100.00
19590;BME280;12231;42.782;23.388;2022-09-21T02:08:08;95741.94;;;5.53;100.00
19590;BME280;12231;42.782;23.388;2022-09-21T02:10:38;95746.91;;;5.57;100.00
19590;BME280;12231;42.782;23.388;2022-09-21T02:13:05;95750.34;;;5.56;100.00
19590;BME280;12231;42.782;23.388;2022-09-21T02:20:55;95743.88;;;5.48;100.00
19590;BME280;12231;42.782;23.388;2022-09-21T02:23:25;95749.84;;;5.47;100.00
19590;BME280;12231;42.782;23.388;2022-09-21T02:26:16;95748.78;;;5.31;100.00
19590;BME280;12231;42.782;23.388;2022-09-21T02:36:42;95748.94;;;5.03;100.00
19590;BME280;12231;42.782;23.388;2022-09-21T02:39:16;95747.50;;;5.19;100.00
19590;BME280;12231;42.782;23.388;2022-09-21T02:41:49;95744.09;;;5.19;100.00
19590;BME280;12231;42.782;23.388;2022-09-21T02:44:25;95740.66;;;5.20;100.00
19590;BME280;12231;42.782;23.388;2022-09-21T02:47:02;95749.88;;;5.24;100.00
19590;BME280;12231;42.782;23.388;2022-09-21T02:49:37;95750.66;;;5.26;100.00
19590;BME280;12231;42.782;23.388;2022-09-21T02:52:09;95747.19;;;5.27;100.00
19590;BME280;12231;42.782;23.388;2022-09-21T02:54:36;95744.63;;;5.28;100.00
19590;BME280;12231;42.782;23.388;2022-09-21T02:57:04;95753.16;;;5.27;100.00
19590;BME280;12231;42.782;23.388;2022-09-21T02:59:31;95755.03;;;5.22;100.00
19590;BME280;12231;42.782;23.388;2022-09-21T03:01:57;95737.16;;;5.22;100.00
19590;BME280;12231;42.782;23.388;2022-09-21T03:04:23;95741.44;;;5.22;100.00
19590;BME280;12231;42.782;23.388;2022-09-21T03:06:49;95741.72;;;5.14;100.00
19590;BME280;12231;42.782;23.388;2022-09-21T03:09:14;95745.59;;;5.01;100.00
19590;BME280;12231;42.782;23.388;2022-09-21T03:11:39;95746.31;;;5.05;100.00
19590;BME280;12231;42.782;23.388;2022-09-21T03:14:08;95749.06;;;5.00;100.00
19590;BME280;12231;42.782;23.388;2022-09-21T03:16:37;95744.66;;;5.04;100.00
19590;BME280;12231;42.782;23.388;2022-09-21T03:19:03;95746.44;;;5.02;100.00
19590;BME280;12231;42.782;23.388;2022-09-21T03:21:29;95753.59;;;4.92;100.00
19590;BME280;12231;42.782;23.388;2022-09-21T03:23:54;95751.78;;;4.96;100.00
19590;BME280;12231;42.782;23.388;2022-09-21T03:26:20;95751.69;;;4.74;100.00
19590;BME280;12231;42.782;23.388;2022-09-21T03:28:49;95756.78;;;4.74;100.00
19590;BME280;12231;42.782;23.388;2022-09-21T03:31:16;95752.53;;;4.75;100.00
19590;BME280;12231;42.782;23.388;2022-09-21T03:33:41;95756.06;;;4.71;100.00
19590;BME280;12231;42.782;23.388;2022-09-21T03:36:07;95760.06;;;4.78;100.00
19590;BME280;12231;42.782;23.388;2022-09-21T03:38:33;95752.41;;;4.78;100.00
19590;BME280;12231;42.782;23.388;2022-09-21T03:40:58;95760.88;;;4.78;100.00
19590;BME280;12231;42.782;23.388;2022-09-21T03:43:25;95761.06;;;4.74;100.00
19590;BME280;12231;42.782;23.388;2022-09-21T03:45:50;95754.47;;;4.91;100.00
19590;BME280;12231;42.782;23.388;2022-09-21T03:48:16;95751.84;;;4.93;100.00
19590;BME280;12231;42.782;23.388;2022-09-21T03:50:42;95748.06;;;6.15;100.00
19590;BME280;12231;42.782;23.388;2022-09-21T03:53:07;95740.06;;;7.77;100.00
19590;BME280;12231;42.782;23.388;2022-09-21T03:55:35;95744.75;;;7.51;100.00
19590;BME280;12231;42.782;23.388;2022-09-21T03:58:01;95753.44;;;7.10;100.00
19590;BME280;12231;42.782;23.388;2022-09-21T04:00:27;95753.28;;;6.34;100.00
19590;BME280;12231;42.782;23.388;2022-09-21T04:02:52;95752.38;;;5.93;100.00
19590;BME280;12231;42.782;23.388;2022-09-21T04:05:18;95766.34;;;5.85;100.00
19590;BME280;12231;42.782;23.388;2022-09-21T04:07:44;95759.88;;;5.75;100.00
19590;BME280;12231;42.782;23.388;2022-09-21T04:10:12;95769.31;;;5.73;100.00
19590;BME280;12231;42.782;23.388;2022-09-21T04:12:39;95760.38;;;5.84;100.00
19590;BME280;12231;42.782;23.388;2022-09-21T04:15:18;95765.78;;;5.77;100.00
19590;BME280;12231;42.782;23.388;2022-09-21T04:17:45;95768.19;;;5.58;100.00
19590;BME280;12231;42.782;23.388;2022-09-21T04:20:11;95774.81;;;5.40;100.00
19590;BME280;12231;42.782;23.388;2022-09-21T04:22:36;95770.19;;;5.27;100.00
19590;BME280;12231;42.782;23.388;2022-09-21T04:25:05;95764.09;;;5.08;100.00
19590;BME280;12231;42.782;23.388;2022-09-21T04:27:31;95775.59;;;5.19;100.00
19590;BME280;12231;42.782;23.388;2022-09-21T04:29:57;95764.28;;;5.26;100.00
19590;BME280;12231;42.782;23.388;2022-09-21T04:32:23;95771.56;;;5.12;100.00
19590;BME280;12231;42.782;23.388;2022-09-21T04:34:48;95773.75;;;5.00;100.00
19590;BME280;12231;42.782;23.388;2022-09-21T04:37:14;95778.88;;;4.24;100.00
19590;BME280;12231;42.782;23.388;2022-09-21T04:39:39;95789.22;;;4.46;100.00
19590;BME280;12231;42.782;23.388;2022-09-21T04:42:05;95782.53;;;4.68;100.00
19590;BME280;12231;42.782;23.388;2022-09-21T04:44:31;95788.28;;;4.98;100.00
19590;BME280;12231;42.782;23.388;2022-09-21T04:46:57;95788.50;;;5.39;100.00
19590;BME280;12231;42.782;23.388;2022-09-21T04:49:22;95773.00;;;5.89;100.00
19590;BME280;12231;42.782;23.388;2022-09-21T04:51:48;95778.94;;;5.89;100.00
19590;BME280;12231;42.782;23.388;2022-09-21T04:54:14;95775.88;;;5.80;100.00
19590;BME280;12231;42.782;23.388;2022-09-21T04:56:39;95773.94;;;5.63;100.00
19590;BME280;12231;42.782;23.388;2022-09-21T04:59:04;95776.78;;;5.79;100.00
19590;BME280;12231;42.782;23.388;2022-09-21T05:01:30;95783.53;;;6.03;100.00
19590;BME280;12231;42.782;23.388;2022-09-21T05:03:55;95790.81;;;6.33;100.00
19590;BME280;12231;42.782;23.388;2022-09-21T05:06:29;95788.22;;;6.75;100.00
19590;BME280;12231;42.782;23.388;2022-09-21T05:08:55;95784.25;;;7.65;100.00
19590;BME280;12231;42.782;23.388;2022-09-21T05:11:39;95786.31;;;8.83;100.00
19590;BME280;12231;42.782;23.388;2022-09-21T05:14:05;95788.94;;;9.63;100.00
19590;BME280;12231;42.782;23.388;2022-09-21T05:16:31;95792.56;;;10.23;98.14
19590;BME280;12231;42.782;23.388;2022-09-21T05:18:57;95787.16;;;11.02;93.15
19590;BME280;12231;42.782;23.388;2022-09-21T05:21:22;95777.88;;;11.42;86.92
19590;BME280;12231;42.782;23.388;2022-09-21T05:23:48;95783.31;;;11.52;86.20
19590;BME280;12231;42.782;23.388;2022-09-21T05:26:13;95784.44;;;12.16;84.16
19590;BME280;12231;42.782;23.388;2022-09-21T05:28:39;95772.75;;;13.03;81.47
19590;BME280;12231;42.782;23.388;2022-09-21T05:31:26;95766.75;;;13.40;78.90
19590;BME280;12231;42.782;23.388;2022-09-21T05:34:05;95767.56;;;13.78;77.52
19590;BME280;12231;42.782;23.388;2022-09-21T05:39:10;95761.28;;;14.06;76.58
19590;BME280;12231;42.782;23.388;2022-09-21T05:41:36;95751.66;;;13.96;76.83
19590;BME280;12231;42.782;23.388;2022-09-21T05:44:02;95752.25;;;13.50;77.68
19590;BME280;12231;42.782;23.388;2022-09-21T05:46:42;95753.91;;;13.51;79.99
19590;BME280;12231;42.782;23.388;2022-09-21T05:49:54;95756.53;;;14.00;77.82
19590;BME280;12231;42.782;23.388;2022-09-21T05:52:30;95748.94;;;13.97;79.23
19590;BME280;12231;42.782;23.388;2022-09-21T05:58:22;95756.59;;;14.82;76.22
19590;BME280;12231;42.782;23.388;2022-09-21T06:03:42;95756.09;;;15.11;73.83
19590;BME280;12231;42.782;23.388;2022-09-21T06:06:08;95752.66;;;15.57;72.45
19590;BME280;12231;42.782;23.388;2022-09-21T06:08:34;95749.34;;;15.44;73.32
19590;BME280;12231;42.782;23.388;2022-09-21T06:10:59;95751.94;;;16.10;71.14
19590;BME280;12231;42.782;23.388;2022-09-21T06:13:25;95754.09;;;15.61;69.97
19590;BME280;12231;42.782;23.388;2022-09-21T06:15:51;95752.81;;;16.42;70.26
19590;BME280;12231;42.782;23.388;2022-09-21T06:18:18;95755.78;;;16.26;68.01
19590;BME280;12231;42.782;23.388;2022-09-21T06:20:44;95759.41;;;16.57;67.02
19590;BME280;12231;42.782;23.388;2022-09-21T06:23:11;95759.69;;;16.32;70.12
19590;BME280;12231;42.782;23.388;2022-09-21T06:25:37;95764.00;;;15.45;69.32
19590;BME280;12231;42.782;23.388;2022-09-21T06:28:12;95762.47;;;15.86;69.54
19590;BME280;12231;42.782;23.388;2022-09-21T06:30:38;95760.41;;;16.12;70.21
19590;BME280;12231;42.782;23.388;2022-09-21T06:33:06;95761.06;;;16.36;69.76
19590;BME280;12231;42.782;23.388;2022-09-21T06:35:34;95759.75;;;16.64;73.40
19590;BME280;12231;42.782;23.388;2022-09-21T06:38:02;95760.47;;;17.27;70.09
19590;BME280;12231;42.782;23.388;2022-09-21T06:40:29;95755.56;;;17.75;66.35
19590;BME280;12231;42.782;23.388;2022-09-21T06:42:58;95753.59;;;17.98;62.29
19590;BME280;12231;42.782;23.388;2022-09-21T06:45:24;95754.91;;;17.52;62.98
19590;BME280;12231;42.782;23.388;2022-09-21T06:47:50;95760.41;;;16.12;69.46
19590;BME280;12231;42.782;23.388;2022-09-21T06:50:16;95765.69;;;16.43;68.06
19590;BME280;12231;42.782;23.388;2022-09-21T06:52:41;95766.38;;;16.57;67.33
19590;BME280;12231;42.782;23.388;2022-09-21T06:55:07;95765.00;;;16.30;68.23
19590;BME280;12231;42.782;23.388;2022-09-21T06:57:34;95771.19;;;15.96;69.62
19590;BME280;12231;42.782;23.388;2022-09-21T07:00:00;95787.16;;;14.55;75.46
19590;BME280;12231;42.782;23.388;2022-09-21T07:02:26;95781.06;;;14.67;76.11
19590;BME280;12231;42.782;23.388;2022-09-21T07:04:52;95781.31;;;14.40;77.16
19590;BME280;12231;42.782;23.388;2022-09-21T07:07:17;95780.00;;;14.93;76.18
19590;BME280;12231;42.782;23.388;2022-09-21T07:09:43;95779.06;;;15.29;74.95
19590;BME280;12231;42.782;23.388;2022-09-21T07:12:08;95784.44;;;15.71;73.74
19590;BME280;12231;42.782;23.388;2022-09-21T07:14:34;95780.03;;;15.39;73.96
19590;BME280;12231;42.782;23.388;2022-09-21T07:16:59;95784.06;;;15.43;74.52
19590;BME280;12231;42.782;23.388;2022-09-21T07:19:24;95794.28;;;15.22;74.78
19590;BME280;12231;42.782;23.388;2022-09-21T07:21:54;95786.31;;;15.58;73.79
19590;BME280;12231;42.782;23.388;2022-09-21T07:24:20;95777.56;;;15.92;72.43
19590;BME280;12231;42.782;23.388;2022-09-21T07:26:45;95777.44;;;15.94;72.77
19590;BME280;12231;42.782;23.388;2022-09-21T07:29:10;95767.63;;;16.08;77.93
19590;BME280;12231;42.782;23.388;2022-09-21T07:31:36;95770.69;;;16.24;75.46
19590;BME280;12231;42.782;23.388;2022-09-21T07:34:02;95771.50;;;17.10;72.47
19590;BME280;12231;42.782;23.388;2022-09-21T07:36:27;95763.56;;;17.53;67.84
19590;BME280;12231;42.782;23.388;2022-09-21T07:38:52;95769.63;;;17.84;69.98
19590;BME280;12231;42.782;23.388;2022-09-21T07:41:18;95771.47;;;18.12;69.53
19590;BME280;12231;42.782;23.388;2022-09-21T07:43:44;95774.03;;;18.32;65.48
19590;BME280;12231;42.782;23.388;2022-09-21T07:46:12;95772.91;;;18.74;63.50
19590;BME280;12231;42.782;23.388;2022-09-21T07:48:39;95767.34;;;18.39;62.10
19590;BME280;12231;42.782;23.388;2022-09-21T07:51:10;95760.09;;;18.62;64.51
19590;BME280;12231;42.782;23.388;2022-09-21T07:53:37;95758.13;;;18.05;62.93
19590;BME280;12231;42.782;23.388;2022-09-21T07:56:08;95762.75;;;18.32;61.95
19590;BME280;12231;42.782;23.388;2022-09-21T07:58:37;95761.69;;;18.34;62.42
19590;BME280;12231;42.782;23.388;2022-09-21T08:01:22;95770.13;;;18.08;63.20
19590;BME280;12231;42.782;23.388;2022-09-21T08:03:48;95772.56;;;17.08;66.33
19590;BME280;12231;42.782;23.388;2022-09-21T08:06:14;95760.25;;;17.81;64.86
19590;BME280;12231;42.782;23.388;2022-09-21T08:08:39;95764.09;;;17.77;63.78
19590;BME280;12231;42.782;23.388;2022-09-21T08:11:06;95765.06;;;16.94;67.77
19590;BME280;12231;42.782;23.388;2022-09-21T08:13:33;95758.25;;;17.64;66.85
19590;BME280;12231;42.782;23.388;2022-09-21T08:16:01;95753.91;;;18.14;65.40
19590;BME280;12231;42.782;23.388;2022-09-21T08:18:27;95755.75;;;17.42;67.53
19590;BME280;12231;42.782;23.388;2022-09-21T08:20:57;95758.72;;;17.07;69.00
19590;BME280;12231;42.782;23.388;2022-09-21T08:23:24;95754.38;;;16.76;69.62
19590;BME280;12231;42.782;23.388;2022-09-21T08:25:50;95756.56;;;17.33;67.73
19590;BME280;12231;42.782;23.388;2022-09-21T08:28:16;95751.69;;;18.00;66.62
19590;BME280;12231;42.782;23.388;2022-09-21T08:30:42;95757.13;;;18.36;64.34
19590;BME280;12231;42.782;23.388;2022-09-21T08:33:08;95745.13;;;19.02;62.75
19590;BME280;12231;42.782;23.388;2022-09-21T08:35:34;95752.91;;;18.05;64.43
19590;BME280;12231;42.782;23.388;2022-09-21T08:38:00;95747.75;;;17.75;66.07
19590;BME280;12231;42.782;23.388;2022-09-21T08:40:26;95743.06;;;18.77;63.88
19590;BME280;12231;42.782;23.388;2022-09-21T08:43:07;95735.75;;;19.74;61.40
19590;BME280;12231;42.782;23.388;2022-09-21T08:45:40;95727.59;;;19.87;59.23
19590;BME280;12231;42.782;23.388;2022-09-21T08:48:23;95731.63;;;19.35;63.29
19590;BME280;12231;42.782;23.388;2022-09-21T08:50:52;95722.03;;;20.54;62.90
19590;BME280;12231;42.782;23.388;2022-09-21T08:53:23;95721.06;;;21.07;59.72
19590;BME280;12231;42.782;23.388;2022-09-21T08:55:50;95708.81;;;21.93;57.81
19590;BME280;12231;42.782;23.388;2022-09-21T08:58:23;95717.06;;;22.39;55.43
19590;BME280;12231;42.782;23.388;2022-09-21T09:11:46;95696.41;;;22.03;51.94
19590;BME280;12231;42.782;23.388;2022-09-21T09:22:32;95678.47;;;22.48;50.19
19590;BME280;12231;42.782;23.388;2022-09-21T09:25:14;95679.53;;;22.71;49.70
19590;BME280;12231;42.782;23.388;2022-09-21T09:27:43;95673.19;;;22.32;48.38
19590;BME280;12231;42.782;23.388;2022-09-21T09:30:25;95670.50;;;22.89;48.50
19590;BME280;12231;42.782;23.388;2022-09-21T09:38:37;95671.09;;;19.94;54.91
19590;BME280;12231;42.782;23.388;2022-09-21T09:49:51;95670.34;;;18.34;59.47
19590;BME280;12231;42.782;23.388;2022-09-21T09:52:21;95659.09;;;19.74;54.84
19590;BME280;12231;42.782;23.388;2022-09-21T09:54:46;95668.22;;;18.00;58.60
19590;BME280;12231;42.782;23.388;2022-09-21T09:57:13;95662.59;;;18.04;60.66
19590;BME280;12231;42.782;23.388;2022-09-21T09:59:45;95649.53;;;20.09;54.21
19590;BME280;12231;42.782;23.388;2022-09-21T10:02:19;95646.47;;;21.87;49.69
19590;BME280;12231;42.782;23.388;2022-09-21T10:05:02;95632.97;;;23.44;45.77
19590;BME280;12231;42.782;23.388;2022-09-21T10:07:38;95640.16;;;22.13;48.81
19590;BME280;12231;42.782;23.388;2022-09-21T10:10:32;95641.94;;;22.05;47.20
19590;BME280;12231;42.782;23.388;2022-09-21T10:15:28;95631.56;;;21.61;46.78
19590;BME280;12231;42.782;23.388;2022-09-21T10:21:24;95631.81;;;22.42;42.05
19590;BME280;12231;42.782;23.388;2022-09-21T10:24:03;95624.00;;;22.74;37.70
19590;BME280;12231;42.782;23.388;2022-09-21T10:27:01;95614.09;;;22.28;39.62
19590;BME280;12231;42.782;23.388;2022-09-21T10:29:32;95611.88;;;21.99;40.53
19590;BME280;12231;42.782;23.388;2022-09-21T10:32:18;95615.06;;;22.43;37.56
19590;BME280;12231;42.782;23.388;2022-09-21T10:37:36;95607.59;;;20.36;41.87
19590;BME280;12231;42.782;23.388;2022-09-21T10:40:07;95609.72;;;19.34;42.23
19590;BME280;12231;42.782;23.388;2022-09-21T10:42:52;95608.59;;;19.91;42.10
19590;BME280;12231;42.782;23.388;2022-09-21T10:45:21;95605.78;;;20.02;42.47
19590;BME280;12231;42.782;23.388;2022-09-21T10:48:07;95597.47;;;19.89;44.29
19590;BME280;12231;42.782;23.388;2022-09-21T10:50:38;95596.69;;;19.52;46.05
19590;BME280;12231;42.782;23.388;2022-09-21T10:58:25;95592.16;;;21.53;41.76
19590;BME280;12231;42.782;23.388;2022-09-21T11:00:52;95588.91;;;21.51;42.96
19590;BME280;12231;42.782;23.388;2022-09-21T11:06:24;95584.47;;;21.52;43.27
19590;BME280;12231;42.782;23.388;2022-09-21T11:09:01;95583.56;;;20.41;45.87
19590;BME280;12231;42.782;23.388;2022-09-21T11:12:01;95582.47;;;20.95;44.94
19590;BME280;12231;42.782;23.388;2022-09-21T11:14:40;95580.16;;;21.43;43.84
19590;BME280;12231;42.782;23.388;2022-09-21T11:17:12;95590.94;;;21.06;46.17
19590;BME280;12231;42.782;23.388;2022-09-21T11:19:55;95603.34;;;20.18;46.52
19590;BME280;12231;42.782;23.388;2022-09-21T11:22:43;95610.69;;;19.24;52.77
19590;BME280;12231;42.782;23.388;2022-09-21T11:31:01;95641.16;;;18.10;64.62
19590;BME280;12231;42.782;23.388;2022-09-21T11:39:11;95650.25;;;16.44;69.32
19590;BME280;12231;42.782;23.388;2022-09-21T11:44:57;95655.00;;;15.54;83.53
19590;BME280;12231;42.782;23.388;2022-09-21T11:51:22;95647.72;;;14.80;89.95
19590;BME280;12231;42.782;23.388;2022-09-21T11:53:27;95656.72;;;14.87;93.56
19590;BME280;12231;42.782;23.388;2022-09-21T12:01:57;95645.78;;;16.04;89.43
19590;BME280;12231;42.782;23.388;2022-09-21T12:07:38;95644.00;;;16.36;82.33
19590;BME280;12231;42.782;23.388;2022-09-21T12:10:15;95648.13;;;16.50;80.20
19590;BME280;12231;42.782;23.388;2022-09-21T12:12:45;95650.22;;;16.56;77.64
19590;BME280;12231;42.782;23.388;2022-09-21T12:16:05;95642.44;;;16.76;75.87
19590;BME280;12231;42.782;23.388;2022-09-21T12:21:08;95647.25;;;16.81;73.29
19590;BME280;12231;42.782;23.388;2022-09-21T12:23:55;95646.25;;;17.23;71.12
19590;BME280;12231;42.782;23.388;2022-09-21T12:26:39;95645.47;;;17.32;69.78
19590;BME280;12231;42.782;23.388;2022-09-21T12:29:26;95640.28;;;17.71;69.23
19590;BME280;12231;42.782;23.388;2022-09-21T12:34:36;95643.19;;;17.97;67.55
19590;BME280;12231;42.782;23.388;2022-09-21T12:37:18;95639.25;;;18.12;64.01
19590;BME280;12231;42.782;23.388;2022-09-21T12:39:58;95640.38;;;18.38;62.18
19590;BME280;12231;42.782;23.388;2022-09-21T12:42:40;95630.50;;;18.32;60.71
19590;BME280;12231;42.782;23.388;2022-09-21T12:45:37;95629.69;;;18.60;60.04
19590;BME280;12231;42.782;23.388;2022-09-21T12:51:30;95619.50;;;18.67;58.11
19590;BME280;12231;42.782;23.388;2022-09-21T12:53:38;95620.94;;;18.98;61.93
19590;BME280;12231;42.782;23.388;2022-09-21T13:04:00;95621.34;;;19.03;58.06
19590;BME280;12231;42.782;23.388;2022-09-21T13:09:03;95609.56;;;19.36;52.63
19590;BME280;12231;42.782;23.388;2022-09-21T13:11:31;95614.53;;;19.29;54.34
19590;BME280;12231;42.782;23.388;2022-09-21T13:14:02;95612.44;;;19.42;54.08
19590;BME280;12231;42.782;23.388;2022-09-21T13:16:37;95602.50;;;19.09;51.76
19590;BME280;12231;42.782;23.388;2022-09-21T13:21:38;95603.97;;;18.65;52.73
19590;BME280;12231;42.782;23.388;2022-09-21T13:24:05;95606.84;;;18.72;52.81
19590;BME280;12231;42.782;23.388;2022-09-21T13:26:52;95598.75;;;18.56;51.20
19590;BME280;12231;42.782;23.388;2022-09-21T13:34:37;95605.38;;;18.50;51.72
19590;BME280;12231;42.782;23.388;2022-09-21T13:44:57;95595.69;;;18.79;50.22
19590;BME280;12231;42.782;23.388;2022-09-21T13:47:34;95590.88;;;18.84;50.61
19590;BME280;12231;42.782;23.388;2022-09-21T13:50:09;95588.28;;;18.84;48.97
19590;BME280;12231;42.782;23.388;2022-09-21T13:52:43;95588.94;;;18.86;49.57
19590;BME280;12231;42.782;23.388;2022-09-21T13:55:32;95579.72;;;18.92;47.71
19590;BME280;12231;42.782;23.388;2022-09-21T13:58:04;95586.81;;;18.53;51.25
19590;BME280;12231;42.782;23.388;2022-09-21T14:00:42;95588.03;;;18.02;50.95
19590;BME280;12231;42.782;23.388;2022-09-21T14:04:14;95585.00;;;18.25;52.11
19590;BME280;12231;42.782;23.388;2022-09-21T14:06:16;95576.63;;;18.31;51.52
19590;BME280;12231;42.782;23.388;2022-09-21T14:11:37;95577.75;;;18.00;53.63
19590;BME280;12231;42.782;23.388;2022-09-21T14:24:43;95587.84;;;17.65;55.88
19590;BME280;12231;42.782;23.388;2022-09-21T14:35:33;95591.09;;;16.88;62.67
19590;BME280;12231;42.782;23.388;2022-09-21T14:38:06;95592.97;;;16.76;62.06
19590;BME280;12231;42.782;23.388;2022-09-21T14:40:38;95599.50;;;16.71;64.68
19590;BME280;12231;42.782;23.388;2022-09-21T14:43:34;95578.94;;;16.68;66.42
19590;BME280;12231;42.782;23.388;2022-09-21T14:46:07;95580.56;;;17.29;60.21
19590;BME280;12231;42.782;23.388;2022-09-21T15:02:25;95584.03;;;18.17;61.18
19590;BME280;12231;42.782;23.388;2022-09-21T15:15:56;95596.50;;;16.75;63.29
19590;BME280;12231;42.782;23.388;2022-09-21T15:18:24;95606.19;;;16.64;62.07
19590;BME280;12231;42.782;23.388;2022-09-21T15:21:00;95603.53;;;16.43;63.42
19590;BME280;12231;42.782;23.388;2022-09-21T15:23:32;95609.50;;;16.02;64.75
19590;BME280;12231;42.782;23.388;2022-09-21T15:26:07;95614.72;;;16.02;62.67
19590;BME280;12231;42.782;23.388;2022-09-21T15:28:41;95611.84;;;15.74;65.22
19590;BME280;12231;42.782;23.388;2022-09-21T15:31:08;95619.78;;;15.50;65.25
19590;BME280;12231;42.782;23.388;2022-09-21T15:33:41;95620.03;;;15.47;65.31
19590;BME280;12231;42.782;23.388;2022-09-21T15:36:10;95616.59;;;15.36;65.98
19590;BME280;12231;42.782;23.388;2022-09-21T15:38:36;95627.00;;;15.02;68.24
19590;BME280;12231;42.782;23.388;2022-09-21T15:41:04;95617.78;;;15.09;68.03
19590;BME280;12231;42.782;23.388;2022-09-21T15:43:31;95623.69;;;15.00;67.65
19590;BME280;12231;42.782;23.388;2022-09-21T15:46:04;95632.41;;;14.99;68.15
19590;BME280;12231;42.782;23.388;2022-09-21T15:48:32;95633.59;;;14.95;68.75
19590;BME280;12231;42.782;23.388;2022-09-21T15:51:13;95627.69;;;14.82;68.94
19590;BME280;12231;42.782;23.388;2022-09-21T15:53:45;95648.00;;;14.19;71.62
19590;BME280;12231;42.782;23.388;2022-09-21T15:56:19;95654.50;;;14.25;72.52
19590;BME280;12231;42.782;23.388;2022-09-21T15:58:47;95651.31;;;14.21;72.17
19590;BME280;12231;42.782;23.388;2022-09-21T16:01:19;95650.16;;;14.25;72.70
19590;BME280;12231;42.782;23.388;2022-09-21T16:03:46;95653.78;;;14.23;74.20
19590;BME280;12231;42.782;23.388;2022-09-21T16:06:37;95653.94;;;14.09;74.30
19590;BME280;12231;42.782;23.388;2022-09-21T16:11:51;95648.16;;;13.82;75.08
19590;BME280;12231;42.782;23.388;2022-09-21T16:14:17;95654.72;;;13.74;75.16
19590;BME280;12231;42.782;23.388;2022-09-21T16:22:12;95658.09;;;13.51;76.79
19590;BME280;12231;42.782;23.388;2022-09-21T16:24:53;95663.59;;;13.47;77.90
19590;BME280;12231;42.782;23.388;2022-09-21T16:27:23;95660.53;;;13.29;79.07
19590;BME280;12231;42.782;23.388;2022-09-21T16:29:50;95668.63;;;13.25;80.07
19590;BME280;12231;42.782;23.388;2022-09-21T16:34:45;95673.31;;;13.07;82.04